EFOU

Oulu Airport

Oulu / Oulunsalo, Finland
METAR EFOU 191950Z AUTO 26009KT 9999 OVC005/// 10/10 Q0990
Observed Flight Rules
Jun-19 @ 19:50 UTC (22 minutes ago) Instrument Flight Rules
Wind Visibility Clouds
260° at 9 knots 10,000+ meters
  • Overcast at 500' AGL
Temperatures Readings
Current 10°C / 50°F
Dewpoint 10°C / 50°F
Humidity 100%
Altimeter 29.23" Hg
Pressure 990 hPa
Elevation 15
METAR EFOU 191950Z AUTO 26009KT 9999 OVC005/// 10/10 Q0990
Observed Flight Rules
Jun-19 @ 19:50 UTC
(22 minutes ago)
IFR
Wind Visibility
260° at 9 knots 10,000+ meters
Clouds
  • Overcast at 500' AGL
Temperature Dewpoint
10°C / 50°F 10°C / 50°F
Humidity Altimeter Pressure
100% 29.23" Hg 990 hPa